createdAt,value
2022-10-02T00:00:01.259Z,11.00
2022-10-02T00:02:51.951Z,10.90
2022-10-02T00:05:42.839Z,11.00
2022-10-02T00:08:34.906Z,10.90
2022-10-02T00:11:24.115Z,10.90
2022-10-02T00:14:14.749Z,11.00
2022-10-02T00:17:03.259Z,11.10
2022-10-02T00:19:53.968Z,11.10
2022-10-02T00:22:47.774Z,11.10
2022-10-02T00:25:42.078Z,11.10
2022-10-02T00:28:32.748Z,11.10
2022-10-02T00:31:31.771Z,11.10
2022-10-02T00:34:27.029Z,11.10
2022-10-02T00:37:22.349Z,11.10
2022-10-02T00:40:36.634Z,11.20
2022-10-02T00:43:32.222Z,11.20
2022-10-02T00:46:38.004Z,11.20
2022-10-02T00:49:43.212Z,11.10
2022-10-02T00:52:46.466Z,11.10
2022-10-02T00:55:46.586Z,11.00
2022-10-02T00:58:48.166Z,10.90
2022-10-02T01:01:41.683Z,10.90
2022-10-02T01:04:32.085Z,10.80
2022-10-02T01:07:18.663Z,10.80
2022-10-02T01:10:05.826Z,10.80
2022-10-02T01:12:53.240Z,10.80
2022-10-02T01:15:45.701Z,10.70
2022-10-02T01:18:32.811Z,10.80
2022-10-02T01:21:25.394Z,10.80
2022-10-02T01:24:17.638Z,10.80
2022-10-02T01:27:05.463Z,10.70
2022-10-02T01:29:56.382Z,10.80
2022-10-02T01:32:47.774Z,10.80
2022-10-02T01:35:38.111Z,10.80
2022-10-02T01:38:25.002Z,10.90
2022-10-02T01:41:12.150Z,10.80
2022-10-02T01:44:03.423Z,10.80
2022-10-02T01:46:57.145Z,10.80
2022-10-02T01:49:57.483Z,10.90
2022-10-02T01:52:50.847Z,10.90
2022-10-02T01:55:45.219Z,10.90
2022-10-02T01:58:43.032Z,11.00
2022-10-02T02:01:45.159Z,11.00
2022-10-02T02:04:40.290Z,11.00
2022-10-02T02:07:35.497Z,11.00
2022-10-02T02:10:27.578Z,11.10
2022-10-02T02:13:17.680Z,11.10
2022-10-02T02:16:10.886Z,11.00
2022-10-02T02:19:04.091Z,11.00
2022-10-02T02:21:55.071Z,10.90
2022-10-02T02:24:45.007Z,10.90
2022-10-02T02:27:35.922Z,11.00
2022-10-02T02:30:24.086Z,11.00
2022-10-02T02:33:14.251Z,11.00
2022-10-02T02:36:07.722Z,10.90
2022-10-02T02:38:59.737Z,11.00
2022-10-02T02:41:50.605Z,11.00
2022-10-02T02:44:42.677Z,11.00
2022-10-02T02:47:33.877Z,11.00
2022-10-02T02:50:23.970Z,10.90
2022-10-02T02:53:16.275Z,10.90
2022-10-02T02:56:05.386Z,10.90
2022-10-02T02:58:57.947Z,10.90
2022-10-02T03:01:44.672Z,10.80
2022-10-02T03:04:31.562Z,10.80
2022-10-02T03:07:18.638Z,10.80
2022-10-02T03:10:13.018Z,10.80
2022-10-02T03:13:12.261Z,10.70
2022-10-02T03:16:12.090Z,10.70
2022-10-02T03:19:10.650Z,10.70
2022-10-02T03:22:05.698Z,10.70
2022-10-02T03:25:00.767Z,10.80
2022-10-02T03:27:53.791Z,10.80
2022-10-02T03:30:42.171Z,10.90
2022-10-02T03:33:31.418Z,11.10
2022-10-02T03:36:20.679Z,11.20
2022-10-02T03:39:25.506Z,11.30
2022-10-02T03:42:14.527Z,11.40
2022-10-02T03:45:02.427Z,11.40
2022-10-02T03:47:49.050Z,11.40
2022-10-02T03:50:36.496Z,11.30
2022-10-02T03:53:25.665Z,11.30
2022-10-02T03:56:17.805Z,11.30
2022-10-02T03:59:11.360Z,11.40
2022-10-02T04:02:03.267Z,11.40
2022-10-02T04:04:55.178Z,11.40
2022-10-02T04:07:46.936Z,11.30
2022-10-02T04:10:44.852Z,11.30
2022-10-02T04:13:37.555Z,11.30
2022-10-02T04:16:32.495Z,11.20
2022-10-02T04:19:24.404Z,11.20
2022-10-02T04:22:18.099Z,11.20
2022-10-02T04:25:10.902Z,11.20
2022-10-02T04:27:59.688Z,11.10
2022-10-02T04:30:46.239Z,11.10
2022-10-02T04:33:37.680Z,11.20
2022-10-02T04:36:39.318Z,11.20
2022-10-02T04:39:46.778Z,11.30
2022-10-02T04:42:49.267Z,11.30
2022-10-02T04:45:50.807Z,11.30
2022-10-02T04:49:02.839Z,11.30
2022-10-02T04:52:06.972Z,11.20
2022-10-02T04:55:16.291Z,11.20
2022-10-02T04:58:23.611Z,11.10
2022-10-02T05:01:21.303Z,11.00
2022-10-02T05:04:24.961Z,11.00
2022-10-02T05:07:33.839Z,11.00
2022-10-02T05:10:45.910Z,11.00
2022-10-02T05:13:48.794Z,11.00
2022-10-02T05:16:54.777Z,10.90
2022-10-02T05:19:53.407Z,10.90
2022-10-02T05:23:05.650Z,11.00
2022-10-02T05:26:12.039Z,11.00
2022-10-02T05:29:18.975Z,11.10
2022-10-02T05:32:27.198Z,11.10
2022-10-02T05:35:28.542Z,11.10
2022-10-02T05:38:28.085Z,11.20
2022-10-02T05:41:22.838Z,11.20
2022-10-02T05:44:16.235Z,11.30
2022-10-02T05:47:11.561Z,11.40
2022-10-02T05:50:01.645Z,11.50
2022-10-02T05:52:54.909Z,11.60
2022-10-02T05:55:50.014Z,11.80
2022-10-02T05:58:41.305Z,11.90
2022-10-02T06:01:29.699Z,12.00
2022-10-02T06:04:22.256Z,12.20
2022-10-02T06:07:11.590Z,12.30
2022-10-02T06:10:03.749Z,12.50
2022-10-02T06:12:59.674Z,12.70
2022-10-02T06:15:51.878Z,13.00
2022-10-02T06:18:40.266Z,13.10
2022-10-02T06:21:36.874Z,13.40
2022-10-02T06:24:30.022Z,13.50
2022-10-02T06:27:23.723Z,13.80
2022-10-02T06:30:14.067Z,14.00
2022-10-02T06:33:06.899Z,14.30
2022-10-02T06:36:32.886Z,14.40
2022-10-02T06:39:33.337Z,14.50
2022-10-02T06:42:32.489Z,14.40
2022-10-02T06:45:31.992Z,14.30
2022-10-02T06:48:26.710Z,14.10
2022-10-02T06:51:22.346Z,13.90
2022-10-02T06:54:19.370Z,13.80
2022-10-02T06:57:18.615Z,14.10
2022-10-02T07:00:13.478Z,14.40
2022-10-02T07:03:31.501Z,14.70
2022-10-02T07:06:27.128Z,15.10
2022-10-02T07:09:52.168Z,15.40
2022-10-02T07:13:12.021Z,15.30
2022-10-02T07:16:22.884Z,15.10
2022-10-02T07:19:43.232Z,15.10
2022-10-02T07:22:45.388Z,15.00
2022-10-02T07:25:50.526Z,14.80
2022-10-02T07:28:42.886Z,14.60
2022-10-02T07:31:40.390Z,14.50
2022-10-02T07:34:42.495Z,14.40
2022-10-02T07:37:39.846Z,14.30
2022-10-02T07:40:36.168Z,14.40
2022-10-02T07:43:38.397Z,14.40
2022-10-02T07:46:32.626Z,14.50
2022-10-02T07:49:38.530Z,14.50
2022-10-02T07:52:37.385Z,14.50
2022-10-02T07:55:24.796Z,14.50
2022-10-02T07:58:15.589Z,14.50
2022-10-02T08:01:04.234Z,14.60
2022-10-02T08:03:56.374Z,14.80
2022-10-02T08:06:47.124Z,15.00
2022-10-02T08:09:37.733Z,15.00
2022-10-02T08:12:30.135Z,15.20
2022-10-02T08:15:20.282Z,15.30
2022-10-02T08:18:35.415Z,15.40
2022-10-02T08:21:25.285Z,15.40
2022-10-02T08:24:16.353Z,15.40
2022-10-02T08:27:08.345Z,15.50
2022-10-02T08:29:58.759Z,15.50
2022-10-02T08:32:44.987Z,15.40
2022-10-02T08:35:40.276Z,15.30
2022-10-02T08:38:36.783Z,15.20
2022-10-02T08:42:18.057Z,15.20
2022-10-02T08:45:33.931Z,15.30
2022-10-02T08:49:17.671Z,15.40
2022-10-02T08:52:38.062Z,15.50
2022-10-02T08:55:46.806Z,15.50
2022-10-02T08:59:06.127Z,15.60
2022-10-02T09:02:40.919Z,15.50
2022-10-02T09:06:03.685Z,15.60
2022-10-02T09:09:22.652Z,15.70
2022-10-02T09:12:40.107Z,15.70
2022-10-02T09:15:44.605Z,15.50
2022-10-02T09:18:50.318Z,15.50
2022-10-02T09:21:56.024Z,15.40
2022-10-02T09:25:19.904Z,15.40
2022-10-02T09:28:34.993Z,15.30
2022-10-02T09:31:58.256Z,15.20
2022-10-02T09:35:26.396Z,15.20
2022-10-02T09:38:40.237Z,15.40
2022-10-02T09:42:03.931Z,15.80
2022-10-02T09:48:45.375Z,16.70
2022-10-02T09:52:06.871Z,16.80
2022-10-02T09:55:30.218Z,17.20
2022-10-02T09:58:46.551Z,17.50
2022-10-02T10:01:49.882Z,17.70
2022-10-02T10:05:13.090Z,17.90
2022-10-02T10:08:32.797Z,18.00
2022-10-02T10:11:49.899Z,18.10
2022-10-02T10:15:24.217Z,18.10
2022-10-02T10:18:52.327Z,18.20
2022-10-02T10:22:19.460Z,18.10
2022-10-02T10:25:51.302Z,18.10
2022-10-02T10:29:07.671Z,18.30
2022-10-02T10:32:44.922Z,18.40
2022-10-02T10:36:33.511Z,18.70
2022-10-02T10:39:53.326Z,18.90
2022-10-02T10:43:16.937Z,18.80
2022-10-02T10:46:23.404Z,18.60
2022-10-02T10:49:40.894Z,18.30
2022-10-02T10:52:40.874Z,18.20
2022-10-02T10:55:39.926Z,18.00
2022-10-02T10:58:40.341Z,18.00
2022-10-02T11:01:38.580Z,18.00
2022-10-02T11:04:45.671Z,18.10
2022-10-02T11:07:50.722Z,18.30
2022-10-02T11:10:52.697Z,18.20
2022-10-02T11:13:54.450Z,18.10
2022-10-02T11:17:24.778Z,18.00
2022-10-02T11:20:44.377Z,17.90
2022-10-02T11:24:03.416Z,17.90
2022-10-02T11:27:12.173Z,17.90
2022-10-02T11:30:11.082Z,18.10
2022-10-02T11:33:27.867Z,18.40
2022-10-02T11:36:42.593Z,18.40
2022-10-02T11:39:54.048Z,18.20
2022-10-02T11:43:19.908Z,18.10
2022-10-02T11:46:38.742Z,18.00
2022-10-02T11:49:59.064Z,18.10
2022-10-02T11:53:23.764Z,18.30
2022-10-02T11:56:25.977Z,18.50
2022-10-02T11:59:51.530Z,18.70
2022-10-02T12:02:47.811Z,18.80
2022-10-02T12:05:55.816Z,18.70
2022-10-02T12:08:52.290Z,18.80
2022-10-02T12:11:45.736Z,18.70
2022-10-02T12:14:38.159Z,18.60
2022-10-02T12:18:03.667Z,18.70
2022-10-02T12:21:20.112Z,18.60
2022-10-02T12:24:33.085Z,18.40
2022-10-02T12:27:32.637Z,18.40
2022-10-02T12:30:22.317Z,18.50
2022-10-02T12:33:21.031Z,18.50
2022-10-02T12:36:34.903Z,18.50
2022-10-02T12:39:43.630Z,18.30
2022-10-02T12:42:55.197Z,18.20
2022-10-02T12:46:02.958Z,17.90
2022-10-02T12:49:03.574Z,17.70
2022-10-02T12:52:13.143Z,17.70
2022-10-02T12:55:45.217Z,17.70
2022-10-02T12:58:40.146Z,17.70
2022-10-02T13:01:56.875Z,17.70
2022-10-02T13:05:05.361Z,17.70
2022-10-02T13:08:41.366Z,17.70
2022-10-02T13:11:39.538Z,17.60
2022-10-02T13:15:02.775Z,17.50
2022-10-02T13:17:58.732Z,17.40
2022-10-02T13:20:51.795Z,17.40
2022-10-02T13:23:47.917Z,17.50
2022-10-02T13:26:42.472Z,17.60
2022-10-02T13:29:47.935Z,17.40
2022-10-02T13:32:59.102Z,17.30
2022-10-02T13:36:00.367Z,17.20
2022-10-02T13:39:15.046Z,17.10
2022-10-02T13:42:18.071Z,16.90
2022-10-02T13:45:13.921Z,16.80
2022-10-02T13:48:10.398Z,16.80
2022-10-02T13:51:05.148Z,16.80
2022-10-02T13:54:07.618Z,16.70
2022-10-02T13:57:02.094Z,16.70
2022-10-02T14:00:03.112Z,16.80
2022-10-02T14:03:00.727Z,16.80
2022-10-02T14:05:57.668Z,16.80
2022-10-02T14:09:14.690Z,16.90
2022-10-02T14:12:27.614Z,17.00
2022-10-02T14:15:31.479Z,17.20
2022-10-02T14:18:49.909Z,17.20
2022-10-02T14:21:40.868Z,17.20
2022-10-02T14:25:04.118Z,17.10
2022-10-02T14:28:21.873Z,17.10
2022-10-02T14:31:38.114Z,17.10
2022-10-02T14:34:47.649Z,17.20
2022-10-02T14:37:53.070Z,17.30
2022-10-02T14:40:50.618Z,17.40
2022-10-02T14:44:08.365Z,17.40
2022-10-02T14:47:33.999Z,17.40
2022-10-02T14:50:40.471Z,17.30
2022-10-02T14:54:00.230Z,17.20
2022-10-02T14:56:55.416Z,17.00
2022-10-02T15:00:05.333Z,17.00
2022-10-02T15:03:39.803Z,17.00
2022-10-02T15:06:32.537Z,16.80
2022-10-02T15:09:24.536Z,16.60
2022-10-02T15:12:15.888Z,16.50
2022-10-02T15:15:11.508Z,16.40
2022-10-02T15:18:20.065Z,16.30
2022-10-02T15:21:19.435Z,16.20
2022-10-02T15:24:26.385Z,16.10
2022-10-02T15:27:23.378Z,16.00
2022-10-02T15:30:29.394Z,15.90
2022-10-02T15:33:23.322Z,15.90
2022-10-02T15:36:25.360Z,15.80
2022-10-02T15:39:29.049Z,15.90
2022-10-02T15:42:20.937Z,15.80
2022-10-02T15:45:33.402Z,15.80
2022-10-02T15:48:36.434Z,15.70
2022-10-02T15:51:55.913Z,15.60
2022-10-02T15:55:01.370Z,15.50
2022-10-02T15:58:03.926Z,15.50
2022-10-02T16:01:18.834Z,15.40
2022-10-02T16:04:16.020Z,15.40
2022-10-02T16:07:26.115Z,15.40
2022-10-02T16:10:24.298Z,15.30
2022-10-02T16:13:30.103Z,15.30
2022-10-02T16:16:45.835Z,15.30
2022-10-02T16:19:51.509Z,15.30
2022-10-02T16:22:52.887Z,15.30
2022-10-02T16:25:56.577Z,15.40
2022-10-02T16:28:53.920Z,15.30
2022-10-02T16:32:07.327Z,15.20
2022-10-02T16:35:17.023Z,15.10
2022-10-02T16:38:11.998Z,15.10
2022-10-02T16:41:00.138Z,15.10
2022-10-02T16:44:01.977Z,14.90
2022-10-02T16:46:50.710Z,14.80
2022-10-02T16:49:48.806Z,14.60
2022-10-02T16:52:45.999Z,14.60
2022-10-02T16:55:37.783Z,14.50
2022-10-02T16:58:28.271Z,14.40
2022-10-02T17:01:27.214Z,14.20
2022-10-02T17:04:25.517Z,14.10
2022-10-02T17:07:43.848Z,14.00
2022-10-02T17:10:39.418Z,13.90
2022-10-02T17:13:33.208Z,13.90
2022-10-02T17:16:24.493Z,13.90
2022-10-02T17:19:24.151Z,13.80
2022-10-02T17:22:24.983Z,13.80
2022-10-02T17:25:21.982Z,13.70
2022-10-02T17:28:19.385Z,13.60
2022-10-02T17:31:34.674Z,13.60
2022-10-02T17:34:24.443Z,13.50
2022-10-02T17:37:46.906Z,13.50
2022-10-02T17:40:42.136Z,13.60
2022-10-02T17:43:37.243Z,13.50
2022-10-02T17:46:50.309Z,13.40
2022-10-02T17:49:50.387Z,13.30
2022-10-02T17:53:00.730Z,13.30
2022-10-02T17:56:29.334Z,13.30
2022-10-02T17:59:37.246Z,13.20
2022-10-02T18:02:46.261Z,13.20
2022-10-02T18:05:46.219Z,13.20
2022-10-02T18:09:07.478Z,13.20
2022-10-02T18:12:46.307Z,13.20
2022-10-02T18:15:51.568Z,13.20
2022-10-02T18:18:40.990Z,13.20
2022-10-02T18:21:39.200Z,13.30
2022-10-02T18:24:56.949Z,13.40
2022-10-02T18:28:00.850Z,13.50
2022-10-02T18:30:53.655Z,13.50
2022-10-02T18:34:06.791Z,13.60
2022-10-02T18:37:13.165Z,13.60
2022-10-02T18:40:16.418Z,13.70
2022-10-02T18:43:27.092Z,13.70
2022-10-02T18:46:21.969Z,13.70
2022-10-02T18:49:30.950Z,13.70
2022-10-02T18:52:46.897Z,13.70
2022-10-02T18:56:02.833Z,13.70
2022-10-02T18:59:12.754Z,13.80
2022-10-02T19:02:14.308Z,13.80
2022-10-02T19:05:25.988Z,13.70
2022-10-02T19:08:21.763Z,13.60
2022-10-02T19:11:17.311Z,13.40
2022-10-02T19:14:15.102Z,13.40
2022-10-02T19:17:03.086Z,13.40
2022-10-02T19:19:49.334Z,13.30
2022-10-02T19:22:38.494Z,13.40
2022-10-02T19:25:27.768Z,13.30
2022-10-02T19:28:18.778Z,13.20
2022-10-02T19:31:10.296Z,13.20
2022-10-02T19:34:02.186Z,13.10
2022-10-02T19:36:52.054Z,13.10
2022-10-02T19:39:41.381Z,13.10
2022-10-02T19:42:30.925Z,13.10
2022-10-02T19:45:25.822Z,13.00
2022-10-02T19:48:18.871Z,13.00
2022-10-02T19:51:08.322Z,13.00
2022-10-02T19:53:58.810Z,13.00
2022-10-02T19:56:46.822Z,12.90
2022-10-02T19:59:41.771Z,12.90
2022-10-02T20:02:32.223Z,12.90
2022-10-02T20:05:24.390Z,12.90
2022-10-02T20:08:17.879Z,12.90
2022-10-02T20:11:10.205Z,12.80
2022-10-02T20:14:00.987Z,12.90
2022-10-02T20:17:19.195Z,12.90
2022-10-02T20:20:12.005Z,12.90
2022-10-02T20:23:04.248Z,12.90
2022-10-02T20:25:56.433Z,12.90
2022-10-02T20:28:48.839Z,12.90
2022-10-02T20:31:40.768Z,12.80
2022-10-02T20:34:31.467Z,12.70
2022-10-02T20:37:23.046Z,12.70
2022-10-02T20:40:17.267Z,12.70
2022-10-02T20:43:09.617Z,12.70
2022-10-02T20:46:11.694Z,12.70
2022-10-02T20:49:53.159Z,12.70
2022-10-02T20:53:09.980Z,12.70
2022-10-02T20:56:05.271Z,12.70
2022-10-02T20:59:30.867Z,12.70
2022-10-02T21:02:35.337Z,12.70
2022-10-02T21:05:49.105Z,12.80
2022-10-02T21:09:04.798Z,12.80
2022-10-02T21:12:15.333Z,12.80
2022-10-02T21:15:43.519Z,12.70
2022-10-02T21:19:04.347Z,12.60
2022-10-02T21:22:14.442Z,12.60
2022-10-02T21:25:50.963Z,12.60
2022-10-02T21:29:11.038Z,12.50
2022-10-02T21:32:31.908Z,12.40
2022-10-02T21:35:35.617Z,12.50
2022-10-02T21:38:56.402Z,12.40
2022-10-02T21:42:08.590Z,12.40
2022-10-02T21:45:32.821Z,12.30
2022-10-02T21:49:06.150Z,12.30
2022-10-02T21:52:24.722Z,12.20
2022-10-02T21:55:53.291Z,12.10
2022-10-02T21:59:16.690Z,12.00
2022-10-02T22:02:31.162Z,11.90
2022-10-02T22:06:06.668Z,11.80
2022-10-02T22:09:06.451Z,11.70
2022-10-02T22:12:06.018Z,11.60
2022-10-02T22:15:08.706Z,11.60
2022-10-02T22:18:02.646Z,11.50
2022-10-02T22:21:08.022Z,11.40
2022-10-02T22:24:20.465Z,11.50
2022-10-02T22:27:29.974Z,11.50
2022-10-02T22:30:24.197Z,11.50
2022-10-02T22:33:28.210Z,11.40
2022-10-02T22:36:40.980Z,11.40
2022-10-02T22:39:31.943Z,11.40
2022-10-02T22:42:23.174Z,11.40
2022-10-02T22:45:20.112Z,11.50
2022-10-02T22:48:13.131Z,11.60
2022-10-02T22:51:08.090Z,11.80
2022-10-02T22:54:00.777Z,11.60
2022-10-02T22:56:57.562Z,11.60
2022-10-02T22:59:50.523Z,11.60
2022-10-02T23:02:47.096Z,11.70
2022-10-02T23:05:41.551Z,11.70
2022-10-02T23:08:34.991Z,11.60
2022-10-02T23:11:25.464Z,11.60
2022-10-02T23:14:20.783Z,11.60
2022-10-02T23:17:14.192Z,11.60
2022-10-02T23:20:06.029Z,11.70
2022-10-02T23:22:58.729Z,11.70
2022-10-02T23:25:53.384Z,11.70
2022-10-02T23:28:48.554Z,11.70
2022-10-02T23:31:42.115Z,11.70
2022-10-02T23:34:39.169Z,11.60
2022-10-02T23:37:33.209Z,11.50
2022-10-02T23:40:42.994Z,11.40
2022-10-02T23:43:36.331Z,11.40
2022-10-02T23:46:28.267Z,11.30
2022-10-02T23:49:16.609Z,11.30
2022-10-02T23:52:17.639Z,11.10
2022-10-02T23:55:28.681Z,11.20
2022-10-02T23:58:33.782Z,11.30
